createdAt,value
2018-02-04T03:50:14.438Z,100576
2018-02-04T06:54:36.853Z,100844
2018-02-04T09:24:11.419Z,101043
2018-02-04T09:34:19.677Z,101063
2018-02-04T09:45:15.911Z,101072
2018-02-04T09:56:56.949Z,101075
2018-02-04T09:59:27.288Z,101084
2018-02-04T10:14:48.499Z,101095
2018-02-04T10:17:17.640Z,101095
2018-02-04T10:19:47.555Z,101101
2018-02-04T10:22:18.771Z,101110
2018-02-04T10:24:48.707Z,101110
2018-02-04T10:27:20.497Z,101114
2018-02-04T10:29:49.669Z,101117
2018-02-04T10:32:21.884Z,101121
2018-02-04T10:34:51.129Z,101114
2018-02-04T10:50:09.080Z,101122
2018-02-04T10:52:42.446Z,101116
2018-02-04T10:55:11.595Z,101127
2018-02-04T10:57:41.800Z,101134
2018-02-04T11:00:24.356Z,101130
2018-02-04T11:03:03.422Z,101141
2018-02-04T11:11:31.351Z,101150
2018-02-04T11:19:40.485Z,101168
2018-02-04T11:22:13.653Z,101168
2018-02-04T11:24:52.457Z,101168
2018-02-04T11:30:43.698Z,101171
2018-02-04T11:33:42.651Z,101176
2018-02-04T11:36:36.373Z,101185
2018-02-04T11:54:08.053Z,101189
2018-02-04T11:56:40.037Z,101180
2018-02-04T11:59:19.124Z,101196
2018-02-04T12:01:49.127Z,101198
2018-02-04T12:09:57.972Z,101194
2018-02-04T12:12:29.129Z,101203
2018-02-04T12:18:16.860Z,101203
2018-02-04T12:37:59.280Z,101232
2018-02-04T12:43:29.362Z,101242
2018-02-04T12:46:06.963Z,101281
2018-02-04T12:48:51.573Z,101034
2018-02-04T12:51:24.070Z,101253
2018-02-04T12:53:54.527Z,101253
2018-02-04T13:02:07.497Z,101262
2018-02-04T13:07:16.882Z,101264
2018-02-04T13:09:52.851Z,101266
2018-02-04T13:21:33.200Z,101278
2018-02-04T13:24:06.520Z,101274
2018-02-04T13:26:58.728Z,101270
2018-02-04T13:29:29.840Z,101273
2018-02-04T13:32:27.592Z,101267
2018-02-04T13:35:19.241Z,101283
2018-02-04T13:37:53.330Z,101277
2018-02-04T13:43:41.734Z,101286
2018-02-04T13:49:39.878Z,101217
2018-02-04T13:54:45.031Z,101297
2018-02-04T13:57:13.134Z,101297
2018-02-04T13:59:41.234Z,101290
2018-02-04T14:03:57.080Z,101217
2018-02-04T14:06:25.223Z,101297
2018-02-04T14:08:54.113Z,101295
2018-02-04T14:11:22.287Z,101303
2018-02-04T14:13:50.567Z,101311
2018-02-04T14:16:19.440Z,101313
2018-02-04T14:18:48.321Z,101313
2018-02-04T14:21:16.468Z,101320
2018-02-04T14:23:44.644Z,101322
2018-02-04T14:26:12.750Z,101321
2018-02-04T14:28:40.875Z,101329
2018-02-04T14:31:08.947Z,101323
2018-02-04T14:33:37.060Z,101341
2018-02-04T14:36:05.144Z,101335
2018-02-04T14:38:33.249Z,101331
2018-02-04T14:41:01.340Z,101332
2018-02-04T14:43:29.469Z,101338
2018-02-04T14:45:58.348Z,101347
2018-02-04T14:48:26.616Z,101351
2018-02-04T14:50:54.924Z,101357
2018-02-04T14:53:23.806Z,101362
2018-02-04T14:55:52.673Z,101360
2018-02-04T14:58:22.513Z,101356
2018-02-04T15:00:51.391Z,101363
2018-02-04T15:03:19.508Z,101370
2018-02-04T15:05:47.611Z,101372
2018-02-04T15:08:15.708Z,101364
2018-02-04T15:10:44.584Z,101377
2018-02-04T15:13:12.703Z,101369
2018-02-04T15:15:40.807Z,101371
2018-02-04T15:18:08.927Z,101373
2018-02-04T15:20:37.789Z,101379
2018-02-04T15:23:05.864Z,101391
2018-02-04T15:25:33.995Z,101397
2018-02-04T15:28:02.141Z,101400
2018-02-04T15:30:30.388Z,101401
2018-02-04T15:32:58.476Z,101401
2018-02-04T15:35:27.385Z,101405
2018-02-04T15:37:55.475Z,101415
2018-02-04T15:40:23.579Z,101416
2018-02-04T15:42:55.244Z,101418
2018-02-04T15:45:23.349Z,101424
2018-02-04T15:47:52.361Z,101426
2018-02-04T15:50:20.442Z,101413
2018-02-04T15:52:48.836Z,101425
2018-02-04T15:55:16.921Z,101423
2018-02-04T15:57:45.030Z,101426
2018-02-04T16:00:13.122Z,101453
2018-02-04T16:02:41.220Z,101444
2018-02-04T16:05:09.299Z,101442
2018-02-04T16:07:37.379Z,101439
2018-02-04T16:10:06.445Z,101441
2018-02-04T16:12:34.532Z,101439
2018-02-04T16:15:02.657Z,101450
2018-02-04T16:17:30.743Z,101441
2018-02-04T16:19:58.852Z,101443
2018-02-04T16:22:26.938Z,101453
2018-02-04T16:24:55.050Z,101453
2018-02-04T16:27:23.142Z,101456
2018-02-04T16:29:51.240Z,101448
2018-02-04T16:32:21.440Z,101447
2018-02-04T16:34:49.526Z,101455
2018-02-04T16:37:17.648Z,101454
2018-02-04T16:39:45.744Z,101459
2018-02-04T16:42:13.851Z,101453
2018-02-04T16:44:41.946Z,101446
2018-02-04T16:47:13.920Z,101461
2018-02-04T16:49:42.047Z,101453
2018-02-04T16:52:10.172Z,101450
2018-02-04T16:54:38.265Z,101453
2018-02-04T16:57:06.380Z,101458
2018-02-04T16:59:34.495Z,101459
2018-02-04T17:02:02.579Z,101468
2018-02-04T17:04:30.691Z,101469
2018-02-04T17:06:58.800Z,101475
2018-02-04T17:09:26.900Z,101472
2018-02-04T17:11:55.777Z,101482
2018-02-04T17:14:23.889Z,101480
2018-02-04T17:16:51.991Z,101482
2018-02-04T17:19:20.086Z,101479
2018-02-04T17:21:48.179Z,101477
2018-02-04T17:24:17.046Z,101439
2018-02-04T17:26:45.127Z,101478
2018-02-04T17:29:13.236Z,101490
2018-02-04T17:31:41.328Z,101484
2018-02-04T17:34:09.425Z,101477
2018-02-04T17:36:37.533Z,101479
2018-02-04T17:39:05.646Z,101483
2018-02-04T17:41:33.737Z,101493
2018-02-04T17:44:01.867Z,101499
2018-02-04T17:46:29.988Z,101501
2018-02-04T17:48:58.096Z,101502
2018-02-04T17:51:26.957Z,101506
2018-02-04T17:53:55.079Z,101497
2018-02-04T17:56:23.220Z,101498
2018-02-04T17:58:51.359Z,101502
2018-02-04T18:01:19.477Z,101503
2018-02-04T18:03:47.550Z,101519
2018-02-04T18:06:16.423Z,101518
2018-02-04T18:08:44.695Z,101519
2018-02-04T18:11:12.813Z,101521
2018-02-04T18:13:40.903Z,101523
2018-02-04T18:16:09.030Z,101531
2018-02-04T18:18:37.899Z,101537
2018-02-04T18:21:06.019Z,101536
2018-02-04T18:23:34.143Z,101541
2018-02-04T18:26:02.244Z,101530
2018-02-04T18:28:31.092Z,101542
2018-02-04T18:30:59.233Z,101538
2018-02-04T18:33:27.328Z,101541
2018-02-04T18:35:55.428Z,101549
2018-02-04T18:38:23.532Z,101551
2018-02-04T18:40:51.640Z,101558
2018-02-04T18:43:19.761Z,101562
2018-02-04T18:45:47.848Z,101566
2018-02-04T18:48:16.721Z,101561
2018-02-04T18:50:45.608Z,101559
2018-02-04T18:53:13.750Z,101563
2018-02-04T18:55:41.847Z,101580
2018-02-04T18:58:09.972Z,101576
2018-02-04T19:00:38.095Z,101576
2018-02-04T19:03:06.198Z,101572
2018-02-04T19:05:35.055Z,101575
2018-02-04T19:08:03.168Z,101585
2018-02-04T19:10:31.300Z,101589
2018-02-04T19:12:59.406Z,101588
2018-02-04T19:15:27.541Z,101595
2018-02-04T19:17:55.666Z,101593
2018-02-04T19:20:23.800Z,101594
2018-02-04T19:22:51.932Z,101595
2018-02-04T19:25:20.035Z,101599
2018-02-04T19:27:48.148Z,101608
2018-02-04T19:30:16.258Z,101612
2018-02-04T19:32:44.360Z,101612
2018-02-04T19:35:12.491Z,101618
2018-02-04T19:37:40.693Z,101609
2018-02-04T19:40:08.946Z,101608
2018-02-04T19:42:37.813Z,101630
2018-02-04T19:45:05.922Z,101625
2018-02-04T19:47:34.159Z,101619
2018-02-04T19:50:02.260Z,101620
2018-02-04T19:52:31.339Z,101618
2018-02-04T19:54:59.447Z,101628
2018-02-04T19:57:27.705Z,101630
2018-02-04T19:59:55.845Z,101626
2018-02-04T20:02:23.944Z,101626
2018-02-04T20:04:52.071Z,101628
2018-02-04T20:07:20.353Z,101632
2018-02-04T20:09:48.664Z,101636
2018-02-04T20:12:17.867Z,101632
2018-02-04T20:14:46.019Z,101635
2018-02-04T20:17:14.140Z,101636
2018-02-04T20:19:42.252Z,101629
2018-02-04T20:22:11.257Z,101634
2018-02-04T20:24:39.424Z,101627
2018-02-04T20:27:09.353Z,101633
2018-02-04T20:29:41.097Z,101643
2018-02-04T20:35:17.455Z,101648
2018-02-04T20:37:45.708Z,101653
2018-02-04T20:40:14.042Z,101649
2018-02-04T20:42:42.440Z,101640
2018-02-04T20:45:10.639Z,101640
2018-02-04T20:47:38.776Z,101648
2018-02-04T20:50:07.026Z,101654
2018-02-04T20:52:35.904Z,101656
2018-02-04T20:55:05.144Z,101659
2018-02-04T20:57:33.423Z,101666
2018-02-04T21:00:01.584Z,101661
2018-02-04T21:02:32.532Z,101676
2018-02-04T21:05:02.949Z,101681
2018-02-04T21:07:32.574Z,101678
2018-02-04T21:10:01.364Z,101674
2018-02-04T21:12:29.839Z,101677
2018-02-04T21:14:58.724Z,101670
2018-02-04T21:17:28.858Z,101667
2018-02-04T21:19:56.999Z,101667
2018-02-04T21:22:25.924Z,101675
2018-02-04T21:24:54.018Z,101669
2018-02-04T21:27:22.333Z,101671
2018-02-04T21:32:54.036Z,101683
2018-02-04T21:35:22.724Z,101674
2018-02-04T21:37:51.005Z,101676
2018-02-04T21:40:19.517Z,101673
2018-02-04T21:42:47.838Z,101674
2018-02-04T21:45:17.769Z,101673
2018-02-04T21:47:45.981Z,101682
2018-02-04T21:57:04.286Z,101682
2018-02-04T21:59:32.522Z,101679
2018-02-04T22:02:01.785Z,101680
2018-02-04T22:04:36.734Z,101681
2018-02-04T22:07:05.156Z,101679
2018-02-04T22:09:35.231Z,101684
2018-02-04T22:12:09.218Z,101689
2018-02-04T22:14:38.734Z,101686
2018-02-04T22:17:08.475Z,101688
2018-02-04T22:19:39.275Z,101685
2018-02-04T22:22:14.174Z,101685
2018-02-04T22:24:42.694Z,101690
2018-02-04T22:27:11.909Z,101700
2018-02-04T22:29:51.349Z,101695
2018-02-04T22:32:23.597Z,101700
2018-02-04T22:34:55.216Z,101701
2018-02-04T22:37:26.465Z,101698
2018-02-04T22:39:58.859Z,101702
2018-02-04T22:42:28.897Z,101705
2018-02-04T22:44:57.784Z,101711
2018-02-04T22:47:27.085Z,101717
2018-02-04T22:49:55.230Z,101724
2018-02-04T22:52:23.395Z,101727
2018-02-04T22:54:51.548Z,101723
2018-02-04T22:57:19.788Z,101725
2018-02-04T22:59:47.970Z,101731
2018-02-04T23:02:24.333Z,101734
2018-02-04T23:14:14.096Z,101732
2018-02-04T23:16:42.437Z,101739
2018-02-04T23:19:12.096Z,101729
2018-02-04T23:21:41.345Z,101739
2018-02-04T23:24:13.127Z,101723
2018-02-04T23:26:41.283Z,101728
2018-02-04T23:29:10.212Z,101717
2018-02-04T23:31:38.341Z,101713
2018-02-04T23:34:06.508Z,101708
2018-02-04T23:36:34.664Z,101707
2018-02-04T23:39:05.810Z,101710
2018-02-04T23:41:33.920Z,101715
2018-02-04T23:44:02.872Z,101714
2018-02-04T23:46:31.026Z,101717
2018-02-04T23:48:59.210Z,101704
2018-02-04T23:51:27.345Z,101703
2018-02-04T23:53:58.317Z,101703
2018-02-04T23:56:26.451Z,101703
2018-02-04T23:58:54.601Z,101708
